Time;durP1;ratioP1;P1;durP2;ratioP2;P2;SDS_P1;SDS_P2;PMS_P1;PMS_P2;Temp;Humidity;BMP_temperature;BMP_pressure;BME280_temperature;BME280_humidity;BME280_pressure;Samples;Min_cycle;Max_cycle;Signal;HPM_P1;HPM_P2
2023/01/17 00:01:05;;;;;;;1.90;1.50;;;3.30;99.90;;;;;;5070747;28;20476;-54
2023/01/17 00:03:31;;;;;;;1.92;1.10;;;3.30;99.90;;;;;;5071192;28;20070;-55
2023/01/17 00:11:25;;;;;;;2.47;1.02;;;3.30;99.90;;;;;;5070511;28;20036;-53
2023/01/17 00:13:51;;;;;;;1.15;0.82;;;3.30;99.90;;;;;;5071441;28;20025;-52
2023/01/17 00:16:17;;;;;;;1.65;1.17;;;3.30;99.90;;;;;;5070664;28;20024;-52
2023/01/17 00:26:01;;;;;;;1.52;0.98;;;3.30;99.90;;;;;;5070988;28;20024;-54
2023/01/17 01:33:38;;;;;;;2.58;1.73;;;3.20;99.90;;;;;;5065973;28;20067;-56
2023/01/17 01:36:06;;;;;;;1.75;1.50;;;3.30;99.90;;;;;;5069354;28;20052;-56
2023/01/17 01:38:32;;;;;;;2.58;1.70;;;3.20;99.90;;;;;;5069562;28;20563;-57
2023/01/17 01:40:58;;;;;;;1.85;1.40;;;3.20;99.90;;;;;;5068758;28;20052;-56
2023/01/17 01:43:48;;;;;;;1.50;1.27;;;3.30;99.90;;;;;;5069270;28;20532;-56
2023/01/17 01:46:22;;;;;;;2.08;1.58;;;3.20;99.90;;;;;;5068065;28;20020;-56
2023/01/17 01:49:20;;;;;;;4.45;1.90;;;3.20;99.90;;;;;;5068980;28;20493;-55
2023/01/17 01:51:53;;;;;;;1.92;1.60;;;3.20;99.90;;;;;;5062370;28;20045;-54
2023/01/17 01:54:25;;;;;;;1.45;1.35;;;3.20;99.90;;;;;;5069812;28;20077;-55
2023/01/17 01:56:55;;;;;;;2.35;1.85;;;3.20;99.90;;;;;;5051571;28;20043;-54
2023/01/17 01:59:22;;;;;;;2.05;1.65;;;3.20;99.90;;;;;;5066489;28;20047;-54
2023/01/17 02:01:50;;;;;;;2.13;1.63;;;3.20;99.90;;;;;;5048602;28;20082;-56
2023/01/17 02:04:17;;;;;;;2.20;1.40;;;3.20;99.90;;;;;;5067505;28;20038;-56
2023/01/17 02:06:46;;;;;;;2.58;1.20;;;3.20;99.90;;;;;;5066240;28;20052;-54
2023/01/17 02:09:13;;;;;;;2.15;1.70;;;3.10;99.90;;;;;;5068823;28;20070;-53
2023/01/17 02:11:40;;;;;;;2.42;1.55;;;3.10;99.90;;;;;;5066936;28;20507;-56
2023/01/17 02:14:05;;;;;;;1.83;1.27;;;3.10;99.90;;;;;;5068871;28;20017;-54
2023/01/17 02:16:53;;;;;;;1.67;1.00;;;3.10;99.90;;;;;;5068661;28;20035;-55
2023/01/17 02:19:36;;;;;;;1.80;1.50;;;3.20;99.90;;;;;;5050631;28;20074;-56
2023/01/17 02:22:04;;;;;;;1.67;1.55;;;3.20;99.90;;;;;;5068553;28;20104;-55
2023/01/17 02:24:48;;;;;;;2.03;1.50;;;3.20;99.90;;;;;;5067323;28;20024;-56
2023/01/17 02:27:26;;;;;;;2.33;1.63;;;3.20;99.90;;;;;;5068408;28;20028;-55
2023/01/17 02:30:10;;;;;;;2.17;1.77;;;3.20;99.90;;;;;;5068284;28;20056;-54
2023/01/17 02:32:43;;;;;;;2.22;2.00;;;3.10;99.90;;;;;;5068789;28;20500;-54
2023/01/17 02:35:12;;;;;;;3.25;2.10;;;3.20;99.90;;;;;;5068435;28;20035;-53
2023/01/17 02:37:50;;;;;;;2.42;1.52;;;3.20;99.90;;;;;;5067667;28;20101;-55
2023/01/17 02:40:24;;;;;;;2.05;1.85;;;3.20;99.90;;;;;;5067996;28;20105;-54
2023/01/17 02:43:01;;;;;;;2.08;1.88;;;3.20;99.90;;;;;;5066574;28;20096;-53
2023/01/17 02:45:27;;;;;;;2.22;1.98;;;3.20;99.90;;;;;;5067023;28;20048;-55
2023/01/17 02:47:53;;;;;;;3.85;2.42;;;3.20;99.90;;;;;;5068602;28;20021;-57
2023/01/17 02:50:23;;;;;;;3.63;2.97;;;3.20;99.90;;;;;;5067059;28;20032;-55
2023/01/17 02:53:13;;;;;;;3.58;2.88;;;3.20;99.90;;;;;;5049873;28;20072;-54
2023/01/17 02:55:55;;;;;;;5.30;3.85;;;3.20;99.90;;;;;;5068029;28;20032;-56
2023/01/17 02:58:47;;;;;;;3.40;3.08;;;3.20;99.90;;;;;;5066712;28;20031;-53
2023/01/17 03:01:47;;;;;;;3.60;3.20;;;3.20;99.90;;;;;;5067230;28;20032;-55
2023/01/17 03:04:51;;;;;;;4.00;3.25;;;3.20;99.90;;;;;;5067842;28;20976;-52
2023/01/17 03:07:23;;;;;;;3.65;3.35;;;3.20;99.90;;;;;;5057227;28;20117;-56
2023/01/17 03:09:52;;;;;;;4.10;3.70;;;3.20;99.90;;;;;;5067052;28;20024;-57
2023/01/17 03:12:19;;;;;;;4.05;3.65;;;3.20;99.90;;;;;;5067516;28;20024;-55
2023/01/17 03:14:44;;;;;;;4.03;3.63;;;3.20;99.90;;;;;;5048768;28;20024;-56
2023/01/17 03:17:10;;;;;;;3.58;3.28;;;3.20;99.90;;;;;;5066760;28;20093;-52
2023/01/17 03:19:36;;;;;;;4.38;3.97;;;3.20;99.90;;;;;;5067533;28;20039;-55
2023/01/17 03:22:01;;;;;;;4.53;3.50;;;3.20;99.90;;;;;;5064808;28;20028;-55
2023/01/17 03:24:27;;;;;;;4.95;4.07;;;3.20;99.90;;;;;;5068064;28;20021;-52
2023/01/17 03:26:53;;;;;;;10.05;4.90;;;3.20;99.90;;;;;;5068474;28;20075;-52
2023/01/17 03:29:18;;;;;;;4.38;3.97;;;3.20;99.90;;;;;;5050187;28;20526;-52
2023/01/17 03:31:45;;;;;;;5.10;4.53;;;3.20;99.90;;;;;;5066930;28;20115;-54
2023/01/17 03:34:11;;;;;;;5.53;4.57;;;3.20;99.90;;;;;;5067406;28;20024;-55
2023/01/17 03:36:36;;;;;;;5.43;4.93;;;3.20;99.90;;;;;;5067341;28;20029;-53
2023/01/17 03:39:02;;;;;;;5.57;5.03;;;3.20;99.90;;;;;;5067841;28;20035;-55
2023/01/17 03:41:28;;;;;;;6.65;5.03;;;3.20;99.90;;;;;;5066522;28;20082;-52
2023/01/17 03:43:53;;;;;;;8.02;5.15;;;3.20;99.90;;;;;;5067168;28;20055;-55
2023/01/17 03:46:24;;;;;;;7.40;5.70;;;3.20;99.90;;;;;;5067620;28;20060;-52
2023/01/17 03:48:51;;;;;;;6.20;5.35;;;3.20;99.90;;;;;;5067266;28;20566;-54
2023/01/17 03:51:16;;;;;;;7.63;6.07;;;3.20;99.90;;;;;;5066409;28;20025;-52
2023/01/17 03:53:45;;;;;;;7.03;6.28;;;3.20;99.90;;;;;;5068041;28;20530;-52
2023/01/17 03:56:10;;;;;;;8.35;6.70;;;3.30;99.90;;;;;;5066359;28;20024;-56
2023/01/17 03:58:36;;;;;;;10.18;6.18;;;3.30;99.90;;;;;;5049223;28;20028;-53
2023/01/17 04:03:27;;;;;;;9.00;7.50;;;3.30;99.90;;;;;;5084001;22;20049;-57
2023/01/17 04:05:52;;;;;;;7.85;7.05;;;3.30;99.90;;;;;;5064799;28;20028;-57
2023/01/17 04:08:18;;;;;;;8.65;7.10;;;3.30;99.90;;;;;;5048729;28;20024;-58
2023/01/17 04:10:43;;;;;;;11.00;8.00;;;3.30;99.90;;;;;;5064833;28;20656;-58
2023/01/17 04:13:09;;;;;;;9.27;8.05;;;3.30;99.90;;;;;;5066293;28;20028;-55
2023/01/17 04:15:34;;;;;;;8.80;7.25;;;3.40;99.90;;;;;;5067072;28;20111;-57
2023/01/17 04:18:00;;;;;;;9.93;8.13;;;3.40;99.90;;;;;;5067430;28;20029;-56
2023/01/17 04:20:35;;;;;;;9.48;6.95;;;3.40;99.90;;;;;;5066998;28;20060;-56
2023/01/17 04:23:00;;;;;;;9.20;7.20;;;3.40;99.90;;;;;;5067196;28;20451;-55
2023/01/17 04:25:28;;;;;;;8.20;7.20;;;3.40;99.90;;;;;;5050182;28;20056;-56
2023/01/17 04:27:54;;;;;;;9.80;7.30;;;3.40;99.90;;;;;;5071303;28;20059;-58
2023/01/17 04:30:20;;;;;;;9.70;8.10;;;3.40;99.90;;;;;;5052824;28;20468;-58
2023/01/17 04:32:45;;;;;;;9.35;7.65;;;3.40;99.90;;;;;;5052897;28;20047;-58
2023/01/17 04:35:11;;;;;;;8.68;7.35;;;3.40;99.90;;;;;;5051375;28;20024;-56
2023/01/17 04:37:36;;;;;;;8.50;7.53;;;3.40;99.90;;;;;;5070774;28;20028;-58
2023/01/17 04:40:03;;;;;;;9.40;7.75;;;3.50;99.90;;;;;;5070793;28;20040;-55
2023/01/17 04:42:29;;;;;;;7.55;6.57;;;3.50;99.90;;;;;;5069970;28;20025;-58
2023/01/17 04:44:55;;;;;;;7.68;5.05;;;3.40;99.90;;;;;;5069867;28;20711;-55
2023/01/17 04:47:21;;;;;;;5.00;4.50;;;3.40;99.90;;;;;;5070377;28;20086;-58
2023/01/17 04:49:46;;;;;;;5.43;4.00;;;3.40;99.90;;;;;;5050014;28;20111;-57
2023/01/17 04:52:13;;;;;;;3.85;3.40;;;3.30;99.90;;;;;;5068548;28;20036;-56
2023/01/17 04:54:39;;;;;;;3.00;2.70;;;3.20;99.90;;;;;;5069048;28;20027;-54
2023/01/17 04:57:05;;;;;;;3.10;2.72;;;3.20;99.90;;;;;;5069934;28;20060;-57
2023/01/17 04:59:31;;;;;;;2.40;2.20;;;3.10;99.90;;;;;;5069309;28;20479;-57
2023/01/17 05:01:57;;;;;;;1.88;1.75;;;3.00;99.90;;;;;;5069949;28;20207;-57
2023/01/17 05:04:22;;;;;;;2.10;1.70;;;3.00;99.90;;;;;;5068490;28;20044;-56
2023/01/17 05:06:48;;;;;;;1.27;1.02;;;2.90;99.90;;;;;;5066942;28;20031;-57
2023/01/17 05:09:13;;;;;;;1.25;1.15;;;2.90;99.90;;;;;;5066490;28;20032;-55
2023/01/17 05:11:39;;;;;;;2.50;1.45;;;2.80;99.90;;;;;;5066285;28;20074;-57
2023/01/17 05:14:05;;;;;;;2.42;1.40;;;2.70;99.90;;;;;;5068880;28;20033;-57
2023/01/17 05:16:30;;;;;;;1.67;1.58;;;2.70;99.90;;;;;;5069762;28;20059;-57
2023/01/17 05:18:56;;;;;;;1.98;1.77;;;2.70;99.90;;;;;;5069872;28;20067;-57
2023/01/17 05:21:21;;;;;;;2.30;1.70;;;2.60;99.90;;;;;;5069703;28;20024;-55
2023/01/17 05:23:47;;;;;;;2.55;1.95;;;2.60;99.90;;;;;;5068346;28;20056;-58
2023/01/17 05:26:13;;;;;;;2.47;1.98;;;2.50;99.90;;;;;;5069310;28;20020;-54
2023/01/17 05:28:38;;;;;;;2.50;2.30;;;2.50;99.90;;;;;;5068654;28;20713;-60
2023/01/17 05:31:04;;;;;;;2.60;1.83;;;2.50;99.90;;;;;;5070099;28;20125;-59
2023/01/17 05:33:30;;;;;;;3.42;2.28;;;2.50;99.90;;;;;;5067722;28;20033;-60
2023/01/17 05:35:56;;;;;;;3.90;2.20;;;2.50;99.90;;;;;;5069387;28;20519;-60
2023/01/17 05:38:22;;;;;;;7.43;2.40;;;2.50;99.90;;;;;;5067453;28;20077;-60
2023/01/17 05:40:48;;;;;;;4.95;3.20;;;2.60;99.90;;;;;;5068567;28;20024;-58
2023/01/17 05:43:13;;;;;;;3.25;2.47;;;2.60;99.90;;;;;;5069456;28;20610;-58
2023/01/17 05:45:39;;;;;;;4.32;3.42;;;2.60;99.90;;;;;;5068216;28;20029;-58
2023/01/17 05:48:05;;;;;;;4.22;3.38;;;2.60;99.90;;;;;;5068594;28;20116;-57
2023/01/17 05:50:36;;;;;;;5.05;3.80;;;2.70;99.90;;;;;;5068666;28;20056;-57
2023/01/17 05:53:10;;;;;;;6.03;4.18;;;2.70;99.90;;;;;;5066724;28;20021;-58
2023/01/17 05:55:36;;;;;;;5.72;4.32;;;2.70;99.90;;;;;;5068332;28;20059;-56
2023/01/17 05:58:03;;;;;;;4.75;3.53;;;2.80;99.90;;;;;;5066842;28;20028;-59
2023/01/17 06:00:29;;;;;;;3.90;2.90;;;2.80;99.90;;;;;;5067236;28;20532;-60
2023/01/17 06:02:56;;;;;;;4.25;2.38;;;2.80;99.90;;;;;;5067360;28;20123;-60
2023/01/17 06:05:23;;;;;;;2.70;2.00;;;2.90;99.90;;;;;;5067942;28;20017;-59
2023/01/17 06:07:49;;;;;;;2.63;1.40;;;2.90;99.90;;;;;;5067454;28;20035;-59
2023/01/17 06:10:17;;;;;;;3.22;1.63;;;2.90;99.90;;;;;;5067143;28;20431;-59
2023/01/17 06:12:44;;;;;;;4.35;1.27;;;2.80;99.90;;;;;;5067853;28;20037;-60
2023/01/17 06:15:11;;;;;;;1.65;0.60;;;2.80;99.90;;;;;;5065971;28;20025;-59
2023/01/17 06:17:36;;;;;;;1.05;0.70;;;2.80;99.90;;;;;;5068453;28;20111;-58
2023/01/17 06:20:04;;;;;;;1.48;0.90;;;2.80;99.90;;;;;;5068915;28;20103;-59
2023/01/17 06:22:29;;;;;;;3.35;0.85;;;2.80;99.90;;;;;;5049391;28;20021;-57
2023/01/17 06:24:55;;;;;;;3.10;0.90;;;2.80;99.90;;;;;;5068333;28;20530;-58
2023/01/17 06:27:21;;;;;;;4.82;1.10;;;2.80;99.90;;;;;;5067733;28;20048;-56
2023/01/17 06:29:46;;;;;;;0.82;0.82;;;2.80;99.90;;;;;;5067621;28;20029;-59
2023/01/17 06:32:13;;;;;;;1.50;0.85;;;2.70;99.90;;;;;;5050233;28;20044;-61
2023/01/17 06:34:39;;;;;;;2.65;1.00;;;2.70;99.90;;;;;;5067114;28;20028;-61
2023/01/17 06:37:04;;;;;;;2.45;0.80;;;2.70;99.90;;;;;;5049701;28;20484;-60
2023/01/17 06:39:30;;;;;;;2.05;0.57;;;2.60;99.90;;;;;;5066416;28;20032;-56
2023/01/17 06:41:55;;;;;;;2.47;0.55;;;2.60;99.90;;;;;;5068207;28;20020;-55
2023/01/17 06:44:21;;;;;;;2.70;0.60;;;2.60;99.90;;;;;;5049163;28;20028;-61
2023/01/17 06:46:47;;;;;;;0.50;0.40;;;2.60;99.90;;;;;;5047955;28;20475;-60
2023/01/17 06:49:13;;;;;;;0.52;0.30;;;2.60;99.90;;;;;;5067494;28;20028;-60
2023/01/17 06:51:39;;;;;;;0.63;0.35;;;2.60;99.90;;;;;;5066865;28;20107;-60
2023/01/17 06:54:04;;;;;;;0.28;0.20;;;2.50;99.90;;;;;;5066878;28;20116;-60
2023/01/17 06:56:32;;;;;;;0.75;0.43;;;2.50;99.90;;;;;;5049105;28;20017;-60
2023/01/17 06:58:57;;;;;;;4.03;0.55;;;2.40;99.90;;;;;;5049041;28;20667;-60
2023/01/17 07:01:23;;;;;;;1.65;0.43;;;2.40;99.90;;;;;;5048574;28;20024;-59
2023/01/17 07:03:51;;;;;;;4.45;0.63;;;2.30;99.90;;;;;;5067899;28;20040;-60
2023/01/17 07:06:16;;;;;;;6.07;0.82;;;2.40;99.90;;;;;;5049366;28;20013;-60
2023/01/17 07:08:42;;;;;;;3.10;0.95;;;2.30;99.90;;;;;;5067897;28;20055;-58
2023/01/17 07:11:08;;;;;;;2.95;0.80;;;2.30;99.90;;;;;;5068239;28;20126;-60
2023/01/17 07:13:38;;;;;;;3.05;0.68;;;2.30;99.90;;;;;;5069136;28;20032;-60
2023/01/17 07:16:05;;;;;;;2.65;0.82;;;2.30;99.90;;;;;;5068129;28;20040;-60
2023/01/17 07:18:31;;;;;;;5.93;0.90;;;2.30;99.90;;;;;;5067169;28;20627;-58
2023/01/17 07:20:57;;;;;;;5.38;0.90;;;2.40;99.90;;;;;;5068037;28;20025;-57
2023/01/17 07:23:23;;;;;;;1.42;0.40;;;2.40;99.90;;;;;;5068336;28;20028;-60
2023/01/17 07:25:54;;;;;;;1.33;0.68;;;2.40;99.90;;;;;;5067318;28;20565;-60
2023/01/17 07:28:20;;;;;;;3.17;0.68;;;2.40;99.90;;;;;;5050459;28;20016;-56
2023/01/17 07:30:46;;;;;;;4.72;0.68;;;2.40;99.90;;;;;;5066802;28;20028;-60
2023/01/17 07:33:11;;;;;;;3.50;0.85;;;2.30;99.90;;;;;;5067728;28;20024;-60
2023/01/17 07:35:37;;;;;;;3.10;1.05;;;2.40;99.90;;;;;;5067115;28;20039;-59
2023/01/17 07:38:04;;;;;;;5.22;1.17;;;2.40;99.90;;;;;;5067066;28;20082;-58
2023/01/17 07:40:30;;;;;;;8.65;1.20;;;2.40;99.90;;;;;;5065778;28;20039;-60
2023/01/17 07:43:00;;;;;;;7.47;1.30;;;2.40;99.90;;;;;;5067213;28;20099;-58
2023/01/17 07:45:26;;;;;;;4.47;1.13;;;2.40;99.90;;;;;;5065629;28;20089;-60
2023/01/17 07:47:51;;;;;;;8.90;1.10;;;2.50;99.90;;;;;;5066113;28;20040;-59
2023/01/17 07:50:17;;;;;;;1.80;0.60;;;2.50;99.90;;;;;;5067604;28;20039;-60
2023/01/17 07:52:47;;;;;;;4.28;1.05;;;2.50;99.90;;;;;;5065514;28;20032;-60
2023/01/17 07:55:13;;;;;;;4.10;1.15;;;2.50;99.90;;;;;;5066232;28;20025;-57
2023/01/17 07:57:38;;;;;;;3.83;1.08;;;2.50;99.90;;;;;;5067126;28;20033;-57
2023/01/17 08:00:04;;;;;;;3.88;0.80;;;2.50;99.90;;;;;;5065785;28;20024;-60
2023/01/17 08:02:30;;;;;;;12.23;3.45;;;2.50;99.90;;;;;;5052502;28;20029;-59
2023/01/17 08:04:56;;;;;;;3.42;0.73;;;2.50;99.90;;;;;;5069517;28;20027;-60
2023/01/17 08:07:21;;;;;;;4.97;1.38;;;2.50;99.90;;;;;;5071130;28;20024;-58
2023/01/17 08:09:48;;;;;;;2.60;1.05;;;2.50;99.90;;;;;;5070114;28;20488;-57
2023/01/17 08:12:14;;;;;;;4.50;1.35;;;2.50;99.90;;;;;;5052200;28;20020;-59
2023/01/17 08:14:40;;;;;;;6.28;0.70;;;2.60;99.90;;;;;;5070334;28;20067;-58
2023/01/17 08:17:13;;;;;;;4.45;0.88;;;2.60;99.90;;;;;;5070105;28;20133;-55
2023/01/17 08:19:38;;;;;;;4.65;0.80;;;2.60;99.90;;;;;;5070120;28;20040;-57
2023/01/17 08:22:04;;;;;;;3.20;0.63;;;2.60;99.90;;;;;;5071209;28;20440;-57
2023/01/17 08:24:29;;;;;;;2.55;1.00;;;2.60;99.90;;;;;;5071179;28;20097;-57
2023/01/17 08:26:55;;;;;;;1.67;0.85;;;2.50;99.90;;;;;;5069319;28;20111;-57
2023/01/17 08:29:22;;;;;;;2.13;0.50;;;2.50;99.90;;;;;;5051946;28;20639;-58
2023/01/17 08:31:48;;;;;;;2.65;0.95;;;2.50;99.90;;;;;;5070463;28;20028;-57
2023/01/17 08:34:14;;;;;;;5.72;0.88;;;2.50;99.90;;;;;;5070191;28;20024;-57
2023/01/17 08:36:41;;;;;;;3.65;0.50;;;2.50;99.90;;;;;;5070746;28;20031;-58
2023/01/17 08:39:08;;;;;;;3.22;0.70;;;2.50;99.90;;;;;;5069938;28;20516;-58
2023/01/17 08:41:34;;;;;;;7.97;0.75;;;2.40;99.90;;;;;;5051241;28;20028;-58
2023/01/17 08:44:01;;;;;;;5.97;1.15;;;2.40;99.90;;;;;;5070371;28;20028;-57
2023/01/17 08:46:27;;;;;;;1.63;0.60;;;2.30;99.90;;;;;;5070450;28;20019;-58
2023/01/17 08:49:01;;;;;;;2.90;0.85;;;2.30;99.90;;;;;;5068428;28;20459;-58
2023/01/17 08:51:28;;;;;;;3.83;0.70;;;2.20;99.90;;;;;;5050131;28;20021;-56
2023/01/17 08:53:55;;;;;;;5.38;0.85;;;2.20;99.90;;;;;;5069371;28;20025;-54
2023/01/17 08:56:24;;;;;;;3.63;0.77;;;2.20;99.90;;;;;;5069312;28;20488;-53
2023/01/17 08:58:50;;;;;;;2.97;0.93;;;2.20;99.90;;;;;;5070112;28;20416;-55
2023/01/17 09:01:16;;;;;;;4.20;0.70;;;2.20;99.90;;;;;;5068941;28;20028;-61
2023/01/17 09:03:41;;;;;;;1.88;0.38;;;2.20;99.90;;;;;;5069770;28;20040;-58
2023/01/17 09:06:12;;;;;;;1.65;0.40;;;2.20;99.90;;;;;;5068641;28;20507;-56
2023/01/17 09:08:38;;;;;;;4.22;0.82;;;2.20;99.90;;;;;;5068526;28;20078;-60
2023/01/17 09:11:06;;;;;;;3.20;1.02;;;2.20;99.90;;;;;;5069062;28;20024;-59
2023/01/17 09:13:31;;;;;;;1.75;0.60;;;2.20;99.90;;;;;;5068275;28;20038;-60
2023/01/17 09:15:58;;;;;;;4.75;1.13;;;2.30;99.90;;;;;;5069818;28;20028;-59
2023/01/17 09:18:28;;;;;;;2.97;0.68;;;2.30;99.90;;;;;;5051887;28;20020;-59
2023/01/17 09:20:57;;;;;;;4.30;0.90;;;2.30;99.90;;;;;;5069679;28;20462;-59
2023/01/17 09:23:24;;;;;;;6.53;1.00;;;2.40;99.90;;;;;;5069100;28;20020;-56
2023/01/17 09:25:58;;;;;;;5.38;1.02;;;2.50;99.90;;;;;;5069782;28;20020;-57
2023/01/17 09:28:26;;;;;;;4.68;1.35;;;2.50;99.90;;;;;;5069634;28;20511;-59
2023/01/17 09:30:52;;;;;;;4.35;1.38;;;2.50;99.90;;;;;;5069414;28;20054;-59
2023/01/17 09:33:19;;;;;;;3.88;0.85;;;2.50;99.90;;;;;;5069696;28;20031;-58
2023/01/17 09:35:45;;;;;;;2.13;1.10;;;2.40;99.90;;;;;;5051849;28;20060;-59
2023/01/17 09:38:10;;;;;;;3.55;0.90;;;2.40;99.90;;;;;;5069490;28;20075;-59
2023/01/17 09:40:41;;;;;;;4.50;1.35;;;2.40;99.90;;;;;;5069601;28;20502;-59
2023/01/17 09:43:18;;;;;;;5.80;0.95;;;2.40;99.90;;;;;;5069248;28;20096;-59
2023/01/17 09:45:44;;;;;;;2.90;1.25;;;2.40;99.90;;;;;;5068992;28;20381;-58
2023/01/17 09:48:20;;;;;;;6.30;1.42;;;2.40;99.90;;;;;;5050314;28;20025;-58
2023/01/17 09:50:59;;;;;;;5.38;1.30;;;2.40;99.90;;;;;;5068385;28;20024;-59
2023/01/17 09:53:26;;;;;;;9.80;1.42;;;2.40;99.90;;;;;;5067447;28;20044;-60
2023/01/17 09:56:03;;;;;;;4.30;1.30;;;2.50;99.90;;;;;;5050435;28;20035;-58
2023/01/17 09:58:50;;;;;;;4.57;1.48;;;2.50;99.90;;;;;;5068663;28;20032;-59
2023/01/17 10:01:21;;;;;;;4.60;1.00;;;2.50;99.90;;;;;;5067210;28;20518;-59
2023/01/17 10:03:55;;;;;;;4.57;0.90;;;2.50;99.90;;;;;;5090954;22;20497;-56
2023/01/17 10:06:38;;;;;;;7.65;0.75;;;2.40;99.90;;;;;;5067234;28;20086;-55
2023/01/17 10:09:19;;;;;;;4.68;0.95;;;2.40;99.90;;;;;;5051035;28;20028;-56
2023/01/17 10:12:03;;;;;;;3.53;1.02;;;2.50;99.90;;;;;;5068004;28;20127;-54
2023/01/17 10:15:07;;;;;;;1.13;0.70;;;2.50;99.90;;;;;;5024430;28;20052;-56
2023/01/17 10:17:51;;;;;;;4.78;1.25;;;2.40;99.90;;;;;;5048340;28;20120;-55
2023/01/17 10:20:41;;;;;;;5.03;1.20;;;2.30;99.90;;;;;;5024040;28;20036;-56
2023/01/17 10:23:24;;;;;;;3.25;1.27;;;2.30;99.90;;;;;;5049048;28;20033;-56
2023/01/17 10:25:51;;;;;;;4.60;1.73;;;2.30;99.90;;;;;;5048387;28;20017;-57
2023/01/17 10:28:32;;;;;;;8.48;2.30;;;2.30;99.90;;;;;;5031208;28;20028;-58
2023/01/17 10:31:12;;;;;;;3.60;0.93;;;2.40;99.90;;;;;;5028413;28;20056;-55
2023/01/17 10:33:50;;;;;;;3.67;0.80;;;2.50;99.90;;;;;;5048125;28;20040;-57
2023/01/17 10:36:22;;;;;;;3.50;1.08;;;2.50;99.90;;;;;;5048059;28;20032;-57
2023/01/17 10:38:52;;;;;;;3.42;1.10;;;2.70;99.90;;;;;;5047904;28;20036;-55
2023/01/17 10:41:27;;;;;;;5.05;0.73;;;2.80;99.90;;;;;;5029965;28;20028;-55
2023/01/17 10:44:29;;;;;;;5.20;1.25;;;2.80;99.90;;;;;;5046612;28;20033;-55
2023/01/17 10:47:09;;;;;;;2.17;0.77;;;2.90;99.90;;;;;;5048106;28;20021;-56
2023/01/17 10:49:44;;;;;;;1.63;0.35;;;2.90;99.90;;;;;;5045054;28;20043;-55
2023/01/17 10:52:11;;;;;;;3.13;0.47;;;3.00;99.90;;;;;;5047050;28;20101;-56
2023/01/17 10:55:03;;;;;;;5.50;0.70;;;3.00;99.90;;;;;;5045616;28;20036;-53
2023/01/17 10:57:39;;;;;;;4.75;0.70;;;3.10;99.90;;;;;;5047488;28;20646;-57
2023/01/17 11:00:42;;;;;;;3.28;0.70;;;3.10;99.90;;;;;;5047480;28;20053;-56
2023/01/17 11:03:10;;;;;;;1.88;0.60;;;3.30;99.90;;;;;;5028234;28;20071;-57
2023/01/17 11:05:39;;;;;;;2.38;0.82;;;3.30;99.90;;;;;;5030943;28;20472;-55
2023/01/17 11:08:13;;;;;;;0.88;0.50;;;3.30;99.90;;;;;;5029883;28;20025;-52
2023/01/17 11:10:47;;;;;;;3.97;0.57;;;3.40;99.90;;;;;;5046385;28;20039;-55
2023/01/17 11:13:34;;;;;;;1.20;0.60;;;3.40;99.90;;;;;;5029593;28;20029;-54
2023/01/17 11:16:06;;;;;;;2.90;0.82;;;3.30;99.90;;;;;;5047912;28;20029;-56
2023/01/17 11:18:34;;;;;;;3.30;0.60;;;3.10;99.90;;;;;;5047539;28;20037;-57
2023/01/17 11:21:16;;;;;;;0.60;0.35;;;2.90;99.90;;;;;;5047148;28;20036;-57
2023/01/17 11:23:45;;;;;;;4.53;0.52;;;2.70;99.90;;;;;;5046875;28;20016;-58
2023/01/17 11:26:22;;;;;;;2.88;0.47;;;2.60;99.90;;;;;;5047537;28;20097;-58
2023/01/17 11:28:48;;;;;;;1.88;0.70;;;2.40;99.90;;;;;;5047949;28;20393;-55
2023/01/17 11:31:15;;;;;;;5.15;0.70;;;2.30;99.90;;;;;;5047507;28;20040;-57
2023/01/17 11:34:05;;;;;;;2.95;0.60;;;2.30;99.90;;;;;;5029502;28;20043;-55
2023/01/17 11:36:31;;;;;;;1.73;0.90;;;2.30;99.90;;;;;;5045776;28;20025;-55
2023/01/17 11:39:03;;;;;;;1.05;0.45;;;2.40;99.90;;;;;;5051620;28;20031;-54
2023/01/17 11:41:37;;;;;;;3.10;0.30;;;2.40;99.90;;;;;;5050494;28;20037;-54
2023/01/17 11:44:23;;;;;;;0.98;0.60;;;2.50;99.90;;;;;;5051722;28;20095;-55
2023/01/17 11:47:08;;;;;;;;;;;2.60;99.90;;;;;;5051481;28;20079;-58
2023/01/17 11:49:34;;;;;;;3.60;0.60;;;2.70;99.90;;;;;;5033016;28;19904;-53
2023/01/17 11:52:06;;;;;;;3.53;0.70;;;2.80;99.90;;;;;;5050869;28;20369;-55
2023/01/17 11:54:38;;;;;;;2.95;0.50;;;2.90;99.90;;;;;;5032579;28;20021;-54
2023/01/17 11:57:05;;;;;;;1.40;0.30;;;3.00;99.90;;;;;;5051234;28;20380;-56
2023/01/17 11:59:36;;;;;;;4.90;0.75;;;3.00;99.90;;;;;;5032652;28;20021;-56
2023/01/17 12:02:30;;;;;;;1.55;0.65;;;3.10;99.90;;;;;;5052106;28;20029;-54
2023/01/17 12:05:22;;;;;;;7.25;1.25;;;3.20;99.90;;;;;;5050425;28;20036;-53
2023/01/17 12:07:54;;;;;;;2.92;0.80;;;3.20;99.90;;;;;;5051899;28;20107;-57
2023/01/17 12:10:30;;;;;;;2.83;0.63;;;3.30;99.90;;;;;;5051879;28;20024;-56
2023/01/17 12:16:30;;;;;;;4.95;0.88;;;3.30;99.90;;;;;;5051127;28;20035;-56
2023/01/17 12:19:11;;;;;;;3.15;0.70;;;3.20;99.90;;;;;;5048634;28;20028;-55
2023/01/17 12:21:37;;;;;;;6.65;1.00;;;3.20;99.90;;;;;;5050627;28;20083;-57
2023/01/17 12:24:12;;;;;;;1.85;0.70;;;3.10;99.90;;;;;;5051571;28;20049;-57
2023/01/17 12:26:55;;;;;;;3.80;0.77;;;3.20;99.90;;;;;;5050948;28;20025;-57
2023/01/17 12:29:34;;;;;;;3.75;0.85;;;3.30;99.90;;;;;;5050424;28;20029;-57
2023/01/17 12:32:12;;;;;;;1.38;0.38;;;3.40;99.90;;;;;;5049459;28;20025;-56
2023/01/17 12:34:49;;;;;;;1.65;0.52;;;3.40;99.90;;;;;;5049353;28;20035;-54
2023/01/17 12:37:28;;;;;;;0.90;0.63;;;3.40;99.90;;;;;;5050858;28;20017;-57
2023/01/17 12:39:59;;;;;;;1.27;0.40;;;3.40;99.90;;;;;;5033500;28;20029;-56
2023/01/17 12:42:33;;;;;;;1.27;0.57;;;3.30;99.90;;;;;;5049346;28;20128;-57
2023/01/17 12:45:06;;;;;;;1.25;0.20;;;3.20;99.90;;;;;;5049774;28;20044;-52
2023/01/17 12:47:41;;;;;;;1.98;0.45;;;3.20;99.90;;;;;;5049246;28;20102;-55
2023/01/17 12:50:29;;;;;;;3.47;0.77;;;3.20;99.90;;;;;;5025770;28;20493;-57
2023/01/17 12:52:58;;;;;;;2.08;0.52;;;3.20;99.90;;;;;;5047454;28;20509;-56
2023/01/17 12:55:37;;;;;;;1.25;0.20;;;3.20;99.90;;;;;;5049608;28;20029;-55
2023/01/17 12:58:09;;;;;;;0.60;0.35;;;3.20;99.90;;;;;;5048850;28;20040;-54
2023/01/17 13:00:37;;;;;;;3.42;0.70;;;3.20;99.90;;;;;;5030762;28;20045;-54
2023/01/17 13:03:27;;;;;;;1.33;0.45;;;3.20;99.90;;;;;;5032665;28;20444;-53
2023/01/17 13:05:56;;;;;;;6.35;0.60;;;3.10;99.90;;;;;;5048014;28;20029;-57
2023/01/17 13:08:33;;;;;;;1.80;0.60;;;3.10;99.90;;;;;;5048080;28;20101;-54
2023/01/17 13:11:19;;;;;;;3.20;0.30;;;3.10;99.90;;;;;;5049170;28;20407;-57
2023/01/17 13:13:46;;;;;;;5.45;2.92;;;3.10;99.90;;;;;;5049019;28;20029;-51
2023/01/17 13:16:23;;;;;;;2.03;1.15;;;3.00;99.90;;;;;;5031703;28;20439;-55
2023/01/17 13:18:51;;;;;;;2.95;0.60;;;3.00;99.90;;;;;;5049150;28;20119;-56
2023/01/17 13:21:31;;;;;;;0.98;0.30;;;3.00;99.90;;;;;;5032177;28;20040;-54
2023/01/17 13:24:00;;;;;;;2.78;1.77;;;3.00;99.90;;;;;;5031862;28;20109;-54
2023/01/17 13:26:42;;;;;;;3.35;0.68;;;3.00;99.90;;;;;;5031791;28;20013;-56
2023/01/17 13:29:39;;;;;;;3.25;0.30;;;3.00;99.90;;;;;;5049930;28;20096;-56
2023/01/17 13:32:28;;;;;;;2.20;0.35;;;3.00;99.90;;;;;;5049744;28;20017;-55
2023/01/17 13:35:15;;;;;;;1.45;0.30;;;3.10;99.90;;;;;;5049629;28;20020;-56
2023/01/17 13:38:07;;;;;;;0.40;0.40;;;3.00;99.90;;;;;;5032019;28;20024;-57
2023/01/17 13:41:20;;;;;;;2.03;1.00;;;3.10;99.90;;;;;;5049826;28;20105;-57
2023/01/17 13:44:20;;;;;;;4.25;2.03;;;3.00;99.90;;;;;;5043451;28;20094;-55
2023/01/17 13:47:09;;;;;;;1.05;0.50;;;3.10;99.90;;;;;;5049314;28;20104;-52
2023/01/17 13:49:44;;;;;;;1.45;0.60;;;3.10;99.90;;;;;;5046473;28;20025;-52
2023/01/17 13:52:18;;;;;;;1.20;0.50;;;3.10;99.90;;;;;;5049598;28;20033;-55
2023/01/17 13:54:44;;;;;;;1.00;0.90;;;3.10;99.90;;;;;;5047910;28;20118;-56
2023/01/17 13:57:25;;;;;;;2.53;0.65;;;3.10;99.90;;;;;;5048985;28;20477;-58
2023/01/17 13:59:52;;;;;;;0.35;0.32;;;3.20;99.90;;;;;;5030346;28;20025;-57
2023/01/17 14:02:32;;;;;;;1.60;0.50;;;3.20;99.90;;;;;;5048976;28;20032;-55
2023/01/17 14:05:20;;;;;;;1.70;0.52;;;3.30;99.90;;;;;;5047372;28;20028;-58
2023/01/17 14:08:03;;;;;;;2.58;1.02;;;3.40;99.90;;;;;;5047580;28;20021;-58
2023/01/17 14:10:32;;;;;;;2.05;0.50;;;3.40;99.90;;;;;;5047361;28;20111;-57
2023/01/17 14:12:59;;;;;;;3.42;1.00;;;3.40;99.90;;;;;;5048529;28;20033;-55
2023/01/17 14:15:26;;;;;;;2.22;0.55;;;3.40;99.90;;;;;;5048394;28;20534;-54
2023/01/17 14:17:55;;;;;;;2.72;0.93;;;3.40;99.90;;;;;;5033120;28;20116;-54
2023/01/17 14:20:24;;;;;;;1.00;0.68;;;3.40;99.90;;;;;;5047804;28;20021;-54
2023/01/17 14:22:56;;;;;;;5.05;0.73;;;3.40;99.90;;;;;;5048996;28;20072;-53
2023/01/17 14:25:27;;;;;;;5.47;2.08;;;3.30;99.90;;;;;;5029840;28;20049;-54
2023/01/17 14:27:57;;;;;;;4.88;2.53;;;3.40;99.90;;;;;;5031405;28;20029;-54
2023/01/17 14:30:33;;;;;;;9.10;3.05;;;3.40;99.90;;;;;;5048569;28;20370;-56
2023/01/17 14:33:01;;;;;;;11.35;5.57;;;3.40;99.90;;;;;;5048839;28;20052;-52
2023/01/17 14:35:31;;;;;;;20.95;11.00;;;3.40;99.90;;;;;;5029601;28;20061;-56
2023/01/17 14:38:00;;;;;;;7.47;3.17;;;3.30;99.90;;;;;;5031932;28;20555;-56
2023/01/17 14:40:29;;;;;;;7.47;2.30;;;3.30;99.90;;;;;;5048648;28;20032;-55
2023/01/17 14:43:04;;;;;;;2.92;0.93;;;3.30;99.90;;;;;;5048119;28;20451;-55